This is the latest recevied weather packets stored in our database for station/object F1AGU-13. If no packets are shown the sender has not sent any weather packets the latest 10 day(s).
| Time | Temp. | Humidity | Pressure | Rain* | Wind** | Luminosity | Snow |
|---|---|---|---|---|---|---|---|
| 1777394117 | 11.11° C | 92% | 1015.4 hPa | 6.6 mm | - | - | - |
| 1777393517 | 11.11° C | 91% | 1015.4 hPa | 5.33 mm | - | - | - |
| 1777392917 | 11.67° C | 91% | 1015.5 hPa | 3.3 mm | - | - | - |
| 1777392317 | 12.22° C | 90% | 1015.3 hPa | 2.29 mm | - | - | - |
| 1777391717 | 12.22° C | 90% | 1015.1 hPa | 2.29 mm | - | - | - |
| 1777391117 | 12.78° C | 88% | 1015.1 hPa | 1.52 mm | - | - | - |
| 1777390517 | 12.78° C | 87% | 1015 hPa | 0.51 mm | - | - | - |
| 1777389917 | 12.78° C | 85% | 1015.1 hPa | 0.51 mm | - | - | - |
| 1777389317 | 13.33° C | 85% | 1015.1 hPa | 0.51 mm | - | - | - |
| 1777388717 | 13.89° C | 82% | 1014.8 hPa | 0.51 mm | - | - | - |
| 1777388117 | 13.89° C | 79% | 1014.8 hPa | 0 mm | - | - | - |
| 1777387517 | 14.44° C | 79% | 1014.7 hPa | 0 mm | - | - | - |
| 1777386917 | 15° C | 76% | 1014.3 hPa | 0 mm | - | - | - |
| 1777386317 | 15.56° C | 71% | 1014.4 hPa | 0 mm | - | - | - |
| 1777385717 | 16.11° C | 67% | 1014.4 hPa | 0 mm | - | - | - |
| 1777385117 | 16.67° C | 64% | 1014.5 hPa | 0 mm | - | - | - |
| 1777384517 | 17.22° C | 63% | 1014.5 hPa | 0 mm | - | - | - |
| 1777383917 | 17.22° C | 62% | 1014.5 hPa | 0 mm | - | - | - |
| 1777383317 | 17.78° C | 60% | 1014.8 hPa | 0 mm | - | - | - |
| 1777382717 | 17.78° C | 60% | 1014.6 hPa | 0 mm | - | - | - |
| 1777382117 | 17.78° C | 61% | 1014.6 hPa | 0 mm | - | - | - |
| 1777381517 | 17.78° C | 62% | 1014.7 hPa | 0 mm | - | - | - |
| 1777380917 | 17.78° C | 61% | 1014.3 hPa | 0 mm | - | - | - |
| 1777380317 | 17.22° C | 62% | 1014.6 hPa | 0 mm | - | - | - |
| 1777379716 | 17.22° C | 61% | 1014.7 hPa | 0 mm | - | - | - |
* Rain latest hour (hover to see other rain measurements)
** Current wind speed in m/s (hover to see current wind gust speed)